PST,Max TemperatureF,Mean TemperatureF,Min TemperatureF,Max Dew PointF,MeanDew PointF,Min DewpointF,Max Humidity, Mean Humidity, Min Humidity, Max Sea Level PressureIn, Mean Sea Level PressureIn, Min Sea Level PressureIn, Max VisibilityMiles, Mean VisibilityMiles, Min VisibilityMiles, Max Wind SpeedMPH, Mean Wind SpeedMPH, Max Gust SpeedMPH,PrecipitationIn, CloudCover, Events, WindDirDegrees
2012-11-1,81,68,54,32,22,16,31,20,9,29.90,29.84,29.78,10,10,10,15,4,,0.00,0,,188
2012-11-2,77,64,50,30,25,20,36,25,15,29.96,29.89,29.84,10,10,10,12,4,,0.00,0,,167
2012-11-3,77,62,48,30,25,21,40,26,13,30.06,30.01,29.93,10,10,10,10,4,,0.00,0,,168
2012-11-4,79,64,50,30,27,24,39,27,14,30.17,30.12,30.06,10,10,10,12,6,,0.00,0,,163
2012-11-5,81,68,54,35,31,28,42,29,16,30.20,30.11,30.05,10,10,10,9,4,,0.00,0,Rain,125
2012-11-6,81,66,52,36,32,29,49,32,15,30.13,30.05,29.98,10,10,10,13,4,,0.00,0,,169
2012-11-7,79,64,50,38,32,27,50,30,20,30.00,29.91,29.76,10,10,10,12,6,,0.00,0,,176
2012-11-8,77,68,59,49,35,27,60,33,18,29.75,29.68,29.58,10,10,10,32,17,41,0.00,1,,205
2012-11-9,59,52,43,46,28,12,64,40,17,29.74,29.63,29.59,10,10,10,29,18,38,0.00,3,,215
2012-11-10,52,44,36,27,20,14,58,39,23,30.07,29.90,29.73,10,10,10,15,7,,0.00,0,,235
2012-11-11,52,42,32,19,15,13,52,35,21,30.39,30.28,30.09,10,10,10,13,7,,0.00,0,,161
2012-11-12,57,44,32,14,11,5,48,28,12,30.39,30.30,30.22,10,10,10,10,4,,0.00,0,,137
2012-11-13,64,50,36,14,9,6,34,22,10,30.26,30.19,30.12,10,10,10,10,5,,0.00,0,,163
2012-11-14,63,50,37,24,16,10,38,26,16,30.17,30.10,30.05,10,10,10,13,6,,0.00,0,,177
2012-11-15,63,52,41,26,19,16,42,29,16,30.14,30.08,30.01,10,10,10,9,5,,0.00,0,,174
2012-11-16,68,56,45,35,26,17,52,35,24,30.05,30.00,29.94,10,10,10,9,5,,0.00,3,,165
2012-11-17,70,58,46,41,38,34,63,47,32,29.99,29.94,29.89,10,10,10,16,6,,0.00,2,,202
2012-11-18,70,61,52,43,37,29,66,46,23,30.05,29.97,29.90,10,10,10,20,16,,0.00,0,,201
2012-11-19,68,58,47,39,38,35,63,49,33,30.23,30.13,30.05,10,10,10,14,7,,0.00,0,,140
2012-11-20,70,56,43,38,35,32,71,50,29,30.22,30.08,30.00,10,10,10,9,3,,0.00,0,,160
2012-11-21,68,56,43,36,32,29,61,44,28,30.03,29.98,29.93,10,10,10,10,3,,0.00,0,,157
2012-11-22,70,58,45,33,31,30,58,42,22,30.23,30.12,30.00,10,10,10,9,4,,0.00,0,,81
2012-11-23,70,58,45,32,27,23,54,34,17,30.29,30.22,30.16,10,10,10,10,2,,0.00,0,,140
2012-11-24,70,58,45,27,23,22,42,30,16,30.17,30.07,29.94,10,10,10,12,5,,0.00,0,,175
2012-11-25,68,56,43,28,24,22,47,33,18,29.95,29.90,29.83,10,10,10,10,4,,0.00,0,,174
2012-11-26,70,56,43,28,23,20,47,31,16,30.10,30.03,29.92,10,10,10,12,6,,0.00,0,,174
2012-11-27,66,54,41,29,24,20,45,34,21,30.19,30.12,30.08,10,10,10,12,5,,0.00,0,,176
2012-11-28,68,54,41,29,26,23,49,32,22,30.18,30.05,29.96,10,10,10,12,8,,0.00,0,,152
2012-11-29,70,63,56,44,40,28,54,43,33,30.09,30.01,29.96,10,10,10,25,14,,0.00,1,,198
2012-11-30,68,62,57,45,43,40,62,49,40,29.99,29.94,29.89,10,10,10,25,18,,0.00,0,,201